»·PEaware :: AAL722 KPAE-KMFR

AAL722 :: KPAE-KMFR

FLIGHT INFORMATION

Flight Status: Arrived
Operator:
American Airlines
More flights by this operator :: More flights under this callsign
Pilot: Jeff S. (20204)
Aircraft: BOEING 727-200
(B722)
More flights by this aircraft type
Origin: KPAE Snohomish Co
United States
Destination: KMFR Rogue Valley Intl-Medford
United States
More flights between these airports :: More routes between these airports
Route: PAINE 6 SEA V495 BTG V23 OED
File this flight plan on PilotEdge
Remarks:
Altitude:
(Current/Filed)
28,000ft
Speed:
(Current/Filed)
440kts
Departed: 28-Nov-18 11:42 PM
Arrived: 29-Nov-18 12:53 AM
Distance/Time
Traveled:
333nm/1:11
Distance/Time
To Go:
Arrived

Flight Plot

Page will automatically refresh every two minutes.

Flight plan parsing failed; only flown route is shown


Map Options




Map Legend


Flown Route
Filed Route
Departure Airport
Arrival Airport
Navaid (VOR, NDB)
Fix

Horizontal Profiles

Position Reports

Time Latitude Longitude Heading Altitude Ground
Speed
28-Nov-18 23:05 47.908264 -122.279330 44 573ft 0kts
28-Nov-18 23:06 47.908264 -122.279330 44 573ft 0kts
28-Nov-18 23:07 47.908264 -122.279330 44 573ft 0kts
28-Nov-18 23:08 47.908264 -122.279330 44 573ft 0kts
28-Nov-18 23:09 47.908264 -122.279330 44 573ft 0kts
28-Nov-18 23:10 47.908264 -122.279330 44 573ft 0kts
28-Nov-18 23:11 47.908264 -122.279330 44 573ft 0kts
28-Nov-18 23:12 47.908264 -122.279330 44 573ft 0kts
28-Nov-18 23:13 47.908264 -122.279330 44 573ft 0kts
28-Nov-18 23:14 47.908264 -122.279330 44 573ft 0kts
28-Nov-18 23:15 47.908264 -122.279330 44 573ft 0kts
28-Nov-18 23:16 47.908264 -122.279330 44 573ft 0kts
28-Nov-18 23:17 47.908264 -122.279330 44 573ft 0kts
28-Nov-18 23:18 47.908264 -122.279330 44 573ft 0kts
28-Nov-18 23:19 47.908264 -122.279330 44 573ft 0kts
28-Nov-18 23:20 47.908264 -122.279330 44 573ft 0kts
28-Nov-18 23:21 47.908264 -122.279330 44 573ft 0kts
28-Nov-18 23:22 47.908264 -122.279330 44 573ft 0kts
28-Nov-18 23:23 47.908264 -122.279330 44 573ft 0kts
28-Nov-18 23:24 47.908264 -122.279330 44 573ft 0kts
28-Nov-18 23:25 47.908264 -122.279330 44 573ft 0kts
28-Nov-18 23:26 47.908264 -122.279330 44 573ft 0kts
28-Nov-18 23:27 47.908264 -122.279330 44 573ft 0kts
28-Nov-18 23:28 47.908163 -122.279475 43 573ft 2kts
28-Nov-18 23:29 47.907688 -122.279820 359 573ft 2kts
28-Nov-18 23:30 47.907240 -122.279524 314 573ft 1kts
28-Nov-18 23:31 47.907235 -122.279516 314 573ft 0kts
28-Nov-18 23:32 47.907235 -122.279517 314 573ft 0kts
28-Nov-18 23:33 47.907235 -122.279517 314 573ft 0kts
28-Nov-18 23:34 47.907235 -122.279517 314 573ft 0kts
28-Nov-18 23:35 47.907235 -122.279517 314 573ft 0kts
28-Nov-18 23:36 47.907235 -122.279517 314 573ft 0kts
28-Nov-18 23:37 47.907235 -122.279517 314 573ft 0kts
28-Nov-18 23:38 47.907548 -122.281375 268 573ft 13kts
28-Nov-18 23:39 47.909133 -122.283375 357 573ft 12kts
28-Nov-18 23:40 47.913955 -122.283491 359 573ft 21kts
28-Nov-18 23:41 47.919656 -122.283923 355 573ft 12kts
28-Nov-18 23:42 47.921361 -122.284347 307 573ft 0kts
28-Nov-18 23:43 47.921365 -122.284355 307 573ft 1kts
28-Nov-18 23:44 47.920914 -122.285840 181 573ft 0kts
28-Nov-18 23:45 47.895350 -122.285872 179 1413ft 148kts
28-Nov-18 23:46 47.846092 -122.288812 181 2971ft 211kts
28-Nov-18 23:47 47.789872 -122.292096 180 5186ft 216kts
28-Nov-18 23:48 47.736540 -122.294867 180 6939ft 222kts
28-Nov-18 23:49 47.690385 -122.327817 259 8322ft 223kts
28-Nov-18 23:50 47.725454 -122.387793 329 9649ft 232kts
28-Nov-18 23:51 47.780074 -122.435081 328 10723ft 247kts
28-Nov-18 23:52 47.789770 -122.510488 220 11646ft 245kts
28-Nov-18 23:53 47.733722 -122.497815 155 14277ft 246kts
28-Nov-18 23:54 47.675813 -122.452045 154 14987ft 311kts
28-Nov-18 23:55 47.607585 -122.397928 154 17250ft 316kts
28-Nov-18 23:56 47.530027 -122.337154 158 18355ft 360kts
28-Nov-18 23:57 47.442147 -122.314667 180 20305ft 364kts
28-Nov-18 23:58 47.347386 -122.325581 188 22051ft 373kts
28-Nov-18 23:59 47.253501 -122.340970 188 23599ft 383kts
29-Nov-18 00:00 47.155034 -122.357699 189 25013ft 392kts
29-Nov-18 00:01 47.053319 -122.375008 189 26281ft 400kts
29-Nov-18 00:02 46.950927 -122.392298 190 27416ft 408kts
29-Nov-18 00:03 46.849066 -122.409561 191 27803ft 430kts
29-Nov-18 00:04 46.735309 -122.428766 190 27804ft 459kts
29-Nov-18 00:05 46.622692 -122.447636 190 27798ft 482kts
29-Nov-18 00:06 46.504582 -122.467329 190 27802ft 500kts
29-Nov-18 00:07 46.396026 -122.485347 190 27806ft 513kts
29-Nov-18 00:08 46.282383 -122.504156 190 27804ft 522kts
29-Nov-18 00:09 46.181383 -122.520790 190 27805ft 525kts
29-Nov-18 00:10 46.061663 -122.540418 190 27797ft 503kts
29-Nov-18 00:11 45.950431 -122.558569 190 27791ft 478kts
29-Nov-18 00:12 45.850869 -122.574777 191 27789ft 459kts
29-Nov-18 00:13 45.749524 -122.592197 196 27787ft 439kts
29-Nov-18 00:14 45.655104 -122.628680 200 27770ft 417kts
29-Nov-18 00:15 45.567401 -122.663389 199 26814ft 396kts
29-Nov-18 00:16 45.480452 -122.697840 199 25423ft 388kts
29-Nov-18 00:17 45.394891 -122.731647 199 24085ft 380kts
29-Nov-18 00:18 45.308984 -122.765512 199 22758ft 372kts
29-Nov-18 00:19 45.225120 -122.798488 198 20298ft 393kts
29-Nov-18 00:20 45.141435 -122.831172 198 18954ft 383kts
29-Nov-18 00:21 45.044942 -122.868836 197 17435ft 370kts
29-Nov-18 00:22 44.949705 -122.905886 196 15847ft 360kts
29-Nov-18 00:23 44.860589 -122.945086 198 14269ft 352kts
29-Nov-18 00:24 44.774610 -122.976789 194 12799ft 346kts
29-Nov-18 00:25 44.684463 -123.008662 194 11303ft 340kts
29-Nov-18 00:26 44.596303 -123.042158 196 9855ft 334kts
29-Nov-18 00:27 44.514886 -123.073287 196 9779ft 290kts
29-Nov-18 00:28 44.441008 -123.101514 196 9808ft 313kts
29-Nov-18 00:29 44.353100 -123.134989 196 9780ft 391kts
29-Nov-18 00:30 44.251899 -123.173371 196 9769ft 436kts
29-Nov-18 00:31 44.146203 -123.213247 195 9758ft 423kts
29-Nov-18 00:32 44.040353 -123.206433 173 9759ft 409kts
29-Nov-18 00:33 43.939305 -123.187606 173 9759ft 401kts
29-Nov-18 00:34 43.856262 -123.171687 173 9761ft 397kts
29-Nov-18 00:35 43.755870 -123.152428 173 9759ft 394kts
29-Nov-18 00:36 43.655072 -123.133149 173 9757ft 391kts
29-Nov-18 00:37 43.553091 -123.113707 173 9736ft 390kts
29-Nov-18 00:38 43.451223 -123.094353 173 9725ft 388kts
29-Nov-18 00:39 43.359579 -123.076998 173 9725ft 388kts
29-Nov-18 00:40 43.264655 -123.059076 173 9724ft 387kts
29-Nov-18 00:41 43.171409 -123.041524 173 10017ft 380kts
29-Nov-18 00:42 43.073425 -123.023144 173 10017ft 382kts
29-Nov-18 00:43 42.981205 -123.005824 174 9977ft 334kts
29-Nov-18 00:44 42.905006 -122.991837 170 9444ft 245kts
29-Nov-18 00:45 42.844030 -122.980526 167 8000ft 224kts
29-Nov-18 00:46 42.786556 -122.969719 167 8011ft 216kts
29-Nov-18 00:47 42.724248 -122.964071 200 6999ft 244kts
29-Nov-18 00:48 42.664648 -123.003884 202 7003ft 256kts
29-Nov-18 00:49 42.611899 -122.995129 156 7611ft 171kts
29-Nov-18 00:50 42.569165 -122.974800 155 6854ft 174kts
29-Nov-18 00:51 42.523446 -122.953192 160 5210ft 213kts
29-Nov-18 00:52 42.482599 -122.931083 152 3596ft 157kts
29-Nov-18 00:53 42.446651 -122.913182 156 2472ft 146kts
29-Nov-18 00:54 42.412284 -122.893179 160 1834ft 135kts
29-Nov-18 00:55 42.379610 -122.875682 158 1327ft 103kts
29-Nov-18 00:56 42.369620 -122.871134 242 1327ft 12kts
29-Nov-18 00:57 42.369007 -122.873394 248 1327ft 0kts
29-Nov-18 00:58 42.393194 -122.882852 157 1555ft 135kts
29-Nov-18 00:59 42.374580 -122.873039 159 1327ft 69kts
29-Nov-18 01:00 42.397095 -122.885018 157 1681ft 140kts
29-Nov-18 01:01 42.371841 -122.871622 158 1327ft 18kts
29-Nov-18 01:02 42.369153 -122.872867 253 1327ft 9kts
29-Nov-18 01:03 42.369007 -122.873394 248 1327ft 0kts
29-Nov-18 01:04 42.369007 -122.873394 248 1327ft 0kts
29-Nov-18 01:05 42.369007 -122.873394 248 1327ft 0kts
29-Nov-18 01:06 42.369007 -122.873394 248 1327ft 0kts
29-Nov-18 01:07 42.369007 -122.873394 248 1327ft 0kts
29-Nov-18 01:08 42.369007 -122.873394 248 1327ft 0kts
29-Nov-18 01:09 42.369007 -122.873394 248 1327ft 0kts
29-Nov-18 01:10 42.369007 -122.873394 248 1327ft 0kts

Navigation Log

Ident Type
Flight plan parsing failed, navigation log unavailable